createdAt,value
2023-04-27T00:01:17.202Z,7.40
2023-04-27T00:03:45.852Z,5.97
2023-04-27T00:06:13.412Z,5.97
2023-04-27T00:08:40.552Z,8.32
2023-04-27T00:11:07.980Z,8.18
2023-04-27T00:13:35.119Z,11.25
2023-04-27T00:16:03.957Z,12.23
2023-04-27T00:18:32.056Z,8.02
2023-04-27T00:20:59.908Z,16.90
2023-04-27T00:23:27.886Z,5.40
2023-04-27T00:25:55.261Z,8.93
2023-04-27T00:28:22.356Z,10.68
2023-04-27T00:30:49.751Z,8.43
2023-04-27T00:33:17.326Z,10.02
2023-04-27T00:35:44.660Z,5.85
2023-04-27T00:38:12.253Z,9.15
2023-04-27T00:40:40.477Z,7.90
2023-04-27T00:43:09.030Z,6.90
2023-04-27T00:45:41.924Z,9.32
2023-04-27T00:48:11.042Z,9.77
2023-04-27T00:50:38.963Z,9.45
2023-04-27T00:53:07.874Z,11.35
2023-04-27T00:55:35.277Z,9.20
2023-04-27T00:58:03.027Z,6.15
2023-04-27T01:00:30.862Z,8.25
2023-04-27T01:02:58.197Z,4.32
2023-04-27T01:05:26.394Z,14.23
2023-04-27T01:07:53.411Z,8.25
2023-04-27T01:10:20.844Z,10.02
2023-04-27T01:12:47.991Z,10.68
2023-04-27T01:15:16.013Z,6.07
2023-04-27T01:17:43.768Z,10.88
2023-04-27T01:20:11.843Z,8.18
2023-04-27T01:22:39.728Z,10.18
2023-04-27T01:25:08.070Z,5.45
2023-04-27T01:27:35.308Z,13.30
2023-04-27T01:30:08.405Z,11.53
2023-04-27T01:32:39.203Z,8.65
2023-04-27T01:35:07.420Z,12.48
2023-04-27T01:37:35.787Z,10.25
2023-04-27T01:40:05.806Z,7.65
2023-04-27T01:42:32.969Z,8.23
2023-04-27T01:45:00.869Z,5.55
2023-04-27T01:47:28.142Z,8.75
2023-04-27T01:49:55.832Z,7.10
2023-04-27T01:52:22.883Z,10.13
2023-04-27T01:54:50.231Z,4.20
2023-04-27T01:57:17.670Z,12.15
2023-04-27T01:59:45.104Z,6.88
2023-04-27T02:02:12.262Z,6.95
2023-04-27T02:04:40.062Z,7.50
2023-04-27T02:07:07.114Z,8.05
2023-04-27T02:09:35.458Z,6.85
2023-04-27T02:12:02.710Z,13.35
2023-04-27T02:14:30.152Z,8.60
2023-04-27T02:16:57.166Z,10.93
2023-04-27T02:19:24.738Z,5.85
2023-04-27T02:21:52.709Z,6.85
2023-04-27T02:24:21.504Z,9.13
2023-04-27T02:26:48.687Z,10.60
2023-04-27T02:29:16.931Z,8.48
2023-04-27T02:31:44.612Z,6.78
2023-04-27T02:34:13.788Z,8.40
2023-04-27T02:36:40.937Z,11.15
2023-04-27T02:39:09.801Z,5.70
2023-04-27T02:41:38.753Z,9.43
2023-04-27T02:44:06.320Z,10.32
2023-04-27T02:46:33.492Z,8.25
2023-04-27T02:49:00.848Z,11.65
2023-04-27T02:51:28.106Z,10.02
2023-04-27T02:53:56.206Z,15.63
2023-04-27T02:56:23.248Z,10.65
2023-04-27T02:58:50.849Z,9.25
2023-04-27T03:01:18.111Z,8.93
2023-04-27T03:03:47.739Z,7.03
2023-04-27T03:06:15.393Z,12.45
2023-04-27T03:08:42.846Z,11.68
2023-04-27T03:11:09.867Z,11.35
2023-04-27T03:13:41.987Z,10.32
2023-04-27T03:16:12.048Z,7.25
2023-04-27T03:18:40.555Z,8.65
2023-04-27T03:21:11.957Z,12.68
2023-04-27T03:23:39.905Z,9.75
2023-04-27T03:26:08.407Z,6.18
2023-04-27T03:28:36.321Z,9.32
2023-04-27T03:31:12.704Z,10.60
2023-04-27T03:33:40.871Z,9.55
2023-04-27T03:36:10.106Z,11.43
2023-04-27T03:38:37.679Z,11.35
2023-04-27T03:41:04.802Z,11.82
2023-04-27T03:43:32.134Z,7.47
2023-04-27T03:45:59.278Z,8.57
2023-04-27T03:48:26.805Z,11.48
2023-04-27T03:50:55.579Z,9.32
2023-04-27T03:53:22.910Z,13.00
2023-04-27T03:55:51.635Z,10.48
2023-04-27T03:58:19.009Z,9.85
2023-04-27T04:01:10.170Z,4.75
2023-04-27T04:03:37.992Z,6.53
2023-04-27T04:06:08.197Z,14.80
2023-04-27T04:08:35.763Z,8.63
2023-04-27T04:11:03.847Z,7.57
2023-04-27T04:13:31.631Z,9.85
2023-04-27T04:16:03.017Z,8.60
2023-04-27T04:18:30.629Z,10.02
2023-04-27T04:20:58.294Z,9.25
2023-04-27T04:23:27.806Z,10.02
2023-04-27T04:25:57.933Z,8.18
2023-04-27T04:28:29.377Z,10.82
2023-04-27T04:30:56.853Z,8.13
2023-04-27T04:33:26.223Z,11.10
2023-04-27T04:35:53.701Z,6.78
2023-04-27T04:38:21.325Z,8.85
2023-04-27T04:40:48.525Z,23.88
2023-04-27T04:43:16.159Z,8.07
2023-04-27T04:45:43.876Z,15.43
2023-04-27T04:48:15.435Z,14.93
2023-04-27T04:50:43.319Z,8.77
2023-04-27T04:53:12.239Z,6.95
2023-04-27T04:55:41.578Z,8.98
2023-04-27T04:58:16.949Z,12.65
2023-04-27T05:00:44.084Z,11.10
2023-04-27T05:03:11.816Z,11.68
2023-04-27T05:05:38.976Z,12.18
2023-04-27T05:08:06.262Z,8.50
2023-04-27T05:10:33.394Z,9.82
2023-04-27T05:13:00.798Z,7.07
2023-04-27T05:15:27.847Z,9.80
2023-04-27T05:17:55.391Z,8.00
2023-04-27T05:20:22.491Z,7.85
2023-04-27T05:22:49.876Z,9.15
2023-04-27T05:25:16.976Z,8.93
2023-04-27T05:27:44.368Z,6.70
2023-04-27T05:30:12.131Z,11.00
2023-04-27T05:32:39.689Z,12.48
2023-04-27T05:35:07.094Z,7.55
2023-04-27T05:37:34.732Z,10.43
2023-04-27T05:40:01.915Z,9.18
2023-04-27T05:42:30.116Z,8.07
2023-04-27T05:44:57.198Z,25.80
2023-04-27T05:47:24.466Z,8.57
2023-04-27T05:49:55.144Z,4.53
2023-04-27T05:52:23.759Z,11.15
2023-04-27T05:54:51.002Z,22.98
2023-04-27T05:57:18.471Z,13.18
2023-04-27T05:59:45.570Z,9.55
2023-04-27T06:02:13.015Z,6.63
2023-04-27T06:04:44.250Z,14.73
2023-04-27T06:07:19.250Z,18.90
2023-04-27T06:09:56.769Z,10.75
2023-04-27T06:12:24.150Z,8.57
2023-04-27T06:14:51.159Z,15.25
2023-04-27T06:17:18.447Z,11.57
2023-04-27T06:19:46.072Z,8.73
2023-04-27T06:22:13.357Z,17.55
2023-04-27T06:24:42.923Z,13.15
2023-04-27T06:27:11.831Z,12.07
2023-04-27T06:29:43.909Z,11.95
2023-04-27T06:32:18.486Z,10.13
2023-04-27T06:34:46.490Z,22.15
2023-04-27T06:37:15.509Z,9.43
2023-04-27T06:39:44.720Z,7.70
2023-04-27T06:42:13.375Z,7.95
2023-04-27T06:44:45.784Z,11.77
2023-04-27T06:47:15.159Z,8.70
2023-04-27T06:49:42.157Z,12.65
2023-04-27T06:52:09.497Z,11.75
2023-04-27T06:54:36.544Z,8.05
2023-04-27T06:57:04.103Z,11.85
2023-04-27T06:59:31.227Z,13.65
2023-04-27T07:01:59.010Z,9.27
2023-04-27T07:04:27.355Z,7.60
2023-04-27T07:06:56.379Z,11.85
2023-04-27T07:09:27.579Z,7.82
2023-04-27T07:11:55.747Z,8.32
2023-04-27T07:14:24.240Z,15.50
2023-04-27T07:16:55.739Z,9.35
2023-04-27T07:19:22.752Z,8.27
2023-04-27T07:21:50.377Z,6.88
2023-04-27T07:24:17.441Z,7.93
2023-04-27T07:26:45.532Z,6.65
2023-04-27T07:29:25.475Z,5.65
2023-04-27T07:31:55.809Z,5.47
2023-04-27T07:34:24.025Z,6.28
2023-04-27T07:36:54.357Z,13.63
2023-04-27T07:41:49.982Z,10.27
2023-04-27T07:44:20.788Z,5.65
2023-04-27T07:46:49.466Z,6.18
2023-04-27T07:49:16.786Z,10.65
2023-04-27T07:51:44.307Z,5.15
2023-04-27T07:54:11.369Z,9.30
2023-04-27T07:56:42.465Z,7.50
2023-04-27T07:59:09.780Z,6.20
2023-04-27T08:01:37.909Z,7.78
2023-04-27T08:04:05.931Z,7.75
2023-04-27T08:06:34.162Z,8.48
2023-04-27T08:09:03.792Z,7.30
2023-04-27T08:11:31.914Z,4.80
2023-04-27T08:13:59.098Z,3.00
2023-04-27T08:16:37.564Z,5.75
2023-04-27T08:19:09.752Z,5.78
2023-04-27T08:21:38.282Z,4.10
2023-04-27T08:24:07.087Z,5.10
2023-04-27T08:26:40.111Z,5.90
2023-04-27T08:29:26.412Z,3.38
2023-04-27T08:31:59.309Z,4.25
2023-04-27T08:34:28.901Z,4.88
2023-04-27T08:36:58.333Z,3.17
2023-04-27T08:39:25.554Z,6.13
2023-04-27T08:41:53.475Z,5.60
2023-04-27T08:44:20.746Z,33.22
2023-04-27T08:46:48.352Z,7.28
2023-04-27T08:49:16.991Z,8.40
2023-04-27T08:51:44.972Z,5.50
2023-04-27T08:54:12.217Z,4.18
2023-04-27T08:57:02.709Z,6.35
2023-04-27T08:59:50.667Z,6.47
2023-04-27T09:02:22.647Z,6.70
2023-04-27T09:04:51.688Z,3.38
2023-04-27T09:07:19.148Z,5.07
2023-04-27T09:09:48.355Z,5.85
2023-04-27T09:12:21.545Z,5.45
2023-04-27T09:15:00.292Z,9.32
2023-04-27T09:17:29.128Z,2.92
2023-04-27T09:20:12.897Z,5.07
2023-04-27T09:22:44.672Z,5.45
2023-04-27T09:25:29.799Z,6.82
2023-04-27T09:27:58.513Z,6.85
2023-04-27T09:30:27.091Z,4.40
2023-04-27T09:32:57.499Z,5.63
2023-04-27T09:35:30.000Z,3.85
2023-04-27T09:37:58.537Z,3.42
2023-04-27T09:40:27.996Z,4.15
2023-04-27T09:43:07.623Z,3.15
2023-04-27T09:45:41.324Z,3.78
2023-04-27T09:48:39.381Z,8.15
2023-04-27T09:51:31.939Z,6.28
2023-04-27T09:54:03.158Z,5.07
2023-04-27T09:56:59.444Z,5.50
2023-04-27T09:59:41.736Z,5.47
2023-04-27T10:02:24.106Z,5.53
2023-04-27T10:04:52.323Z,6.90
2023-04-27T10:07:24.184Z,6.22
2023-04-27T10:10:05.775Z,7.07
2023-04-27T10:12:36.610Z,5.20
2023-04-27T10:15:16.366Z,4.10
2023-04-27T10:17:53.298Z,3.42
2023-04-27T10:20:31.991Z,3.53
2023-04-27T10:23:02.755Z,4.97
2023-04-27T10:25:38.415Z,2.55
2023-04-27T10:28:08.191Z,5.63
2023-04-27T10:30:38.122Z,4.22
2023-04-27T10:33:11.033Z,3.20
2023-04-27T10:35:41.214Z,2.83
2023-04-27T10:38:11.198Z,3.47
2023-04-27T10:40:38.960Z,2.22
2023-04-27T10:43:17.889Z,2.45
2023-04-27T10:45:45.536Z,3.10
2023-04-27T10:48:15.715Z,2.80
2023-04-27T10:50:44.988Z,3.13
2023-04-27T10:53:12.819Z,2.00
2023-04-27T10:55:40.481Z,2.75
2023-04-27T10:58:08.079Z,3.00
2023-04-27T11:00:39.092Z,2.35
2023-04-27T11:03:22.520Z,3.67
2023-04-27T11:06:01.645Z,2.33
2023-04-27T11:08:30.910Z,6.30
2023-04-27T11:10:58.721Z,3.80
2023-04-27T11:13:28.399Z,5.75
2023-04-27T11:15:59.243Z,3.33
2023-04-27T11:18:35.464Z,3.53
2023-04-27T11:21:16.303Z,4.28
2023-04-27T11:23:47.707Z,3.40
2023-04-27T11:26:18.518Z,6.63
2023-04-27T11:28:59.158Z,3.38
2023-04-27T11:31:28.157Z,4.53
2023-04-27T11:33:56.160Z,1.77
2023-04-27T11:36:24.445Z,2.72
2023-04-27T11:38:57.968Z,2.45
2023-04-27T11:41:36.393Z,6.32
2023-04-27T11:44:06.426Z,6.05
2023-04-27T11:46:38.146Z,4.90
2023-04-27T11:49:07.541Z,6.43
2023-04-27T11:51:41.712Z,4.35
2023-04-27T11:54:38.558Z,8.82
2023-04-27T11:57:13.102Z,3.53
2023-04-27T12:02:08.985Z,7.03
2023-04-27T12:04:37.686Z,5.28
2023-04-27T12:07:15.460Z,4.00
2023-04-27T12:09:44.057Z,3.75
2023-04-27T12:12:14.141Z,5.78
2023-04-27T12:14:41.614Z,7.53
2023-04-27T12:17:09.275Z,5.50
2023-04-27T12:19:37.413Z,2.95
2023-04-27T12:22:05.825Z,4.45
2023-04-27T12:24:33.149Z,3.15
2023-04-27T12:27:03.288Z,5.78
2023-04-27T12:29:32.156Z,9.35
2023-04-27T12:32:00.234Z,3.30
2023-04-27T12:34:28.595Z,6.13
2023-04-27T12:36:58.689Z,7.57
2023-04-27T12:39:25.903Z,7.10
2023-04-27T12:41:54.119Z,4.40
2023-04-27T12:44:21.524Z,4.97
2023-04-27T12:46:49.271Z,11.10
2023-04-27T12:49:17.282Z,6.68
2023-04-27T12:51:45.690Z,8.10
2023-04-27T12:54:13.240Z,8.35
2023-04-27T12:56:42.086Z,7.90
2023-04-27T12:59:09.601Z,13.13
2023-04-27T13:01:37.387Z,8.23
2023-04-27T13:04:06.058Z,18.50
2023-04-27T13:06:33.657Z,7.37
2023-04-27T13:09:01.163Z,5.30
2023-04-27T13:11:28.867Z,10.10
2023-04-27T13:13:56.688Z,2.30
2023-04-27T13:16:25.688Z,3.65
2023-04-27T13:18:55.596Z,7.93
2023-04-27T13:21:23.424Z,10.93
2023-04-27T13:23:53.678Z,7.32
2023-04-27T13:26:21.613Z,13.23
2023-04-27T13:28:50.022Z,8.20
2023-04-27T13:31:17.649Z,3.83
2023-04-27T13:33:45.951Z,5.90
2023-04-27T13:36:13.912Z,8.32
2023-04-27T13:38:41.337Z,6.95
2023-04-27T13:41:09.448Z,6.13
2023-04-27T13:43:37.181Z,3.90
2023-04-27T13:46:04.722Z,4.15
2023-04-27T13:48:32.143Z,7.47
2023-04-27T13:50:59.720Z,7.60
2023-04-27T13:53:27.367Z,5.53
2023-04-27T13:55:56.205Z,6.35
2023-04-27T13:58:26.263Z,4.97
2023-04-27T14:00:56.354Z,10.70
2023-04-27T14:03:31.599Z,3.65
2023-04-27T14:06:00.031Z,8.98
2023-04-27T14:08:34.633Z,6.85
2023-04-27T14:11:02.159Z,6.00
2023-04-27T14:13:29.248Z,7.43
2023-04-27T14:16:07.187Z,4.25
2023-04-27T14:18:53.667Z,4.18
2023-04-27T14:21:21.095Z,6.38
2023-04-27T14:23:48.557Z,5.95
2023-04-27T14:26:16.932Z,6.88
2023-04-27T14:28:48.413Z,5.07
2023-04-27T14:31:16.087Z,6.40
2023-04-27T14:33:43.291Z,4.97
2023-04-27T14:36:11.115Z,2.90
2023-04-27T14:38:38.219Z,4.30
2023-04-27T14:41:05.758Z,2.75
2023-04-27T14:43:32.961Z,5.32
2023-04-27T14:46:19.144Z,12.38
2023-04-27T14:48:48.435Z,12.68
2023-04-27T14:51:16.523Z,3.65
2023-04-27T14:53:44.361Z,3.00
2023-04-27T14:56:12.437Z,2.30
2023-04-27T14:58:39.726Z,2.55
2023-04-27T15:01:08.012Z,5.72
2023-04-27T15:03:35.448Z,4.32
2023-04-27T15:06:03.177Z,7.30
2023-04-27T15:08:33.439Z,8.48
2023-04-27T15:11:03.846Z,4.70
2023-04-27T15:13:31.209Z,10.40
2023-04-27T15:16:00.960Z,3.50
2023-04-27T15:18:28.365Z,4.70
2023-04-27T15:20:56.577Z,10.23
2023-04-27T15:23:24.922Z,2.03
2023-04-27T15:25:56.061Z,5.80
2023-04-27T15:28:23.855Z,7.80
2023-04-27T15:30:55.398Z,8.52
2023-04-27T15:33:23.551Z,3.78
2023-04-27T15:35:51.648Z,4.00
2023-04-27T15:38:20.598Z,5.50
2023-04-27T15:40:48.465Z,2.78
2023-04-27T15:43:15.743Z,3.38
2023-04-27T15:45:44.163Z,3.40
2023-04-27T15:48:12.274Z,5.43
2023-04-27T15:50:41.059Z,3.95
2023-04-27T15:53:08.188Z,6.90
2023-04-27T15:55:35.908Z,14.05
2023-04-27T15:58:04.004Z,6.60
2023-04-27T16:00:32.194Z,3.75
2023-04-27T16:02:59.881Z,11.25
2023-04-27T16:05:27.662Z,12.02
2023-04-27T16:07:54.803Z,8.75
2023-04-27T16:10:22.290Z,10.18
2023-04-27T16:12:49.364Z,15.43
2023-04-27T16:15:17.229Z,6.00
2023-04-27T16:17:44.701Z,2.92
2023-04-27T16:20:12.346Z,4.53
2023-04-27T16:22:39.929Z,3.50
2023-04-27T16:25:10.775Z,1.98
2023-04-27T16:27:39.137Z,3.72
2023-04-27T16:30:07.579Z,3.38
2023-04-27T16:32:35.683Z,7.15
2023-04-27T16:35:03.755Z,8.00
2023-04-27T16:37:31.012Z,2.80
2023-04-27T16:40:01.754Z,4.97
2023-04-27T16:42:29.069Z,7.20
2023-04-27T16:44:57.006Z,9.25
2023-04-27T16:47:24.102Z,12.80
2023-04-27T16:49:52.126Z,4.20
2023-04-27T16:52:20.076Z,5.05
2023-04-27T16:54:47.489Z,6.80
2023-04-27T16:57:14.723Z,10.40
2023-04-27T16:59:42.354Z,5.47
2023-04-27T17:02:23.040Z,4.25
2023-04-27T17:04:52.898Z,5.60
2023-04-27T17:07:20.522Z,6.18
2023-04-27T17:09:48.726Z,17.42
2023-04-27T17:12:16.924Z,13.77
2023-04-27T17:14:44.838Z,9.13
2023-04-27T17:17:12.588Z,12.23
2023-04-27T17:19:40.704Z,9.75
2023-04-27T17:22:11.299Z,8.95
2023-04-27T17:24:39.449Z,5.55
2023-04-27T17:27:06.697Z,11.20
2023-04-27T17:29:34.635Z,9.40
2023-04-27T17:32:02.205Z,7.57
2023-04-27T17:34:30.229Z,10.52
2023-04-27T17:36:58.611Z,5.32
2023-04-27T17:39:26.535Z,10.00
2023-04-27T17:41:54.821Z,5.40
2023-04-27T17:44:23.199Z,6.80
2023-04-27T17:46:51.744Z,22.55
2023-04-27T17:49:19.434Z,16.15
2023-04-27T17:51:47.131Z,12.52
2023-04-27T17:54:14.506Z,5.20
2023-04-27T17:56:42.754Z,5.30
2023-04-27T17:59:10.141Z,5.55
2023-04-27T18:01:37.209Z,3.33
2023-04-27T18:04:07.139Z,6.93
2023-04-27T18:06:34.422Z,8.98
2023-04-27T18:09:02.395Z,8.63
2023-04-27T18:11:30.016Z,8.63
2023-04-27T18:13:58.284Z,7.60
2023-04-27T18:16:25.681Z,8.60
2023-04-27T18:18:53.248Z,10.13
2023-04-27T18:21:20.445Z,12.93
2023-04-27T18:23:47.910Z,13.35
2023-04-27T18:26:15.109Z,9.15
2023-04-27T18:28:42.447Z,17.55
2023-04-27T18:31:18.852Z,9.48
2023-04-27T18:33:47.076Z,9.77
2023-04-27T18:36:14.304Z,7.25
2023-04-27T18:38:41.891Z,10.85
2023-04-27T18:41:09.231Z,10.77
2023-04-27T18:43:37.064Z,5.50
2023-04-27T18:46:04.758Z,9.23
2023-04-27T18:48:32.551Z,14.82
2023-04-27T18:50:59.761Z,13.05
2023-04-27T18:53:28.369Z,17.08
2023-04-27T18:56:02.419Z,41.63
2023-04-27T18:58:49.113Z,90.43
2023-04-27T19:01:30.446Z,132.82
2023-04-27T19:04:02.357Z,91.00
2023-04-27T19:06:31.413Z,38.17
2023-04-27T19:08:59.097Z,31.55
2023-04-27T19:11:26.617Z,34.47
2023-04-27T19:13:54.430Z,41.30
2023-04-27T19:16:23.750Z,58.22
2023-04-27T19:18:51.354Z,82.80
2023-04-27T19:21:18.566Z,45.25
2023-04-27T19:23:46.011Z,48.42
2023-04-27T19:26:14.172Z,48.45
2023-04-27T19:28:42.240Z,64.45
2023-04-27T19:31:10.329Z,53.83
2023-04-27T19:33:46.333Z,100.45
2023-04-27T19:36:14.669Z,165.95
2023-04-27T19:38:42.400Z,175.82
2023-04-27T19:41:09.971Z,77.18
2023-04-27T19:43:37.603Z,46.10
2023-04-27T19:46:04.984Z,64.07
2023-04-27T19:48:32.932Z,62.53
2023-04-27T19:51:00.709Z,66.32
2023-04-27T19:53:28.383Z,57.78
2023-04-27T19:55:55.707Z,52.97
2023-04-27T19:58:23.311Z,75.28
2023-04-27T20:00:50.754Z,82.97
2023-04-27T20:03:18.588Z,79.57
2023-04-27T20:05:46.485Z,67.20
2023-04-27T20:08:14.132Z,65.95
2023-04-27T20:10:42.064Z,70.03
2023-04-27T20:13:09.829Z,51.88
2023-04-27T20:15:37.725Z,45.67
2023-04-27T20:18:05.700Z,41.38
2023-04-27T20:20:33.210Z,49.78
2023-04-27T20:23:00.834Z,65.40
2023-04-27T20:25:28.068Z,43.78
2023-04-27T20:27:55.726Z,30.75
2023-04-27T20:30:23.094Z,47.33
2023-04-27T20:32:50.672Z,45.28
2023-04-27T20:35:18.452Z,40.75
2023-04-27T20:37:46.066Z,43.40
2023-04-27T20:40:17.645Z,38.80
2023-04-27T20:42:45.893Z,31.80
2023-04-27T20:45:13.328Z,31.85
2023-04-27T20:47:41.411Z,27.75
2023-04-27T20:50:09.188Z,27.23
2023-04-27T20:52:36.801Z,27.15
2023-04-27T20:55:07.078Z,22.08
2023-04-27T20:57:34.777Z,21.95
2023-04-27T21:00:01.933Z,23.80
2023-04-27T21:02:30.249Z,17.02
2023-04-27T21:04:57.869Z,21.63
2023-04-27T21:07:25.571Z,18.00
2023-04-27T21:09:52.807Z,14.88
2023-04-27T21:12:20.195Z,17.38
2023-04-27T21:14:47.288Z,18.08
2023-04-27T21:17:15.311Z,18.42
2023-04-27T21:19:42.566Z,13.82
2023-04-27T21:22:10.133Z,14.98
2023-04-27T21:24:37.386Z,13.15
2023-04-27T21:27:04.811Z,18.55
2023-04-27T21:29:34.632Z,12.57
2023-04-27T21:32:02.632Z,14.15
2023-04-27T21:34:29.651Z,11.93
2023-04-27T21:36:57.071Z,13.98
2023-04-27T21:39:24.104Z,13.30
2023-04-27T21:41:51.536Z,14.57
2023-04-27T21:44:18.724Z,17.33
2023-04-27T21:46:47.066Z,12.82
2023-04-27T21:49:14.435Z,12.70
2023-04-27T21:51:41.825Z,10.18
2023-04-27T21:54:08.987Z,11.30
2023-04-27T21:56:37.672Z,13.15
2023-04-27T21:59:04.970Z,14.73
2023-04-27T22:01:33.195Z,10.82
2023-04-27T22:04:01.043Z,12.57
2023-04-27T22:06:28.749Z,9.57
2023-04-27T22:08:56.147Z,11.43
2023-04-27T22:11:23.585Z,12.38
2023-04-27T22:13:51.266Z,7.53
2023-04-27T22:16:18.645Z,9.70
2023-04-27T22:18:45.921Z,12.35
2023-04-27T22:21:13.589Z,16.13
2023-04-27T22:23:41.019Z,10.77
2023-04-27T22:26:09.009Z,14.55
2023-04-27T22:28:36.460Z,11.23
2023-04-27T22:31:04.868Z,14.35
2023-04-27T22:33:32.537Z,11.68
2023-04-27T22:36:00.112Z,9.57
2023-04-27T22:38:27.174Z,26.33
2023-04-27T22:40:54.502Z,27.80
2023-04-27T22:43:21.659Z,18.05
2023-04-27T22:45:49.064Z,28.90
2023-04-27T22:48:16.520Z,32.42
2023-04-27T22:50:43.957Z,27.00
2023-04-27T22:53:10.933Z,33.00
2023-04-27T22:55:38.590Z,30.77
2023-04-27T22:58:06.400Z,26.45
2023-04-27T23:00:34.168Z,29.63
2023-04-27T23:03:01.563Z,32.53
2023-04-27T23:05:30.037Z,10.82
2023-04-27T23:08:00.747Z,10.05
2023-04-27T23:10:31.266Z,7.93
2023-04-27T23:13:03.624Z,8.27
2023-04-27T23:15:31.753Z,10.85
2023-04-27T23:17:59.090Z,11.95
2023-04-27T23:20:28.893Z,15.25
2023-04-27T23:22:56.364Z,11.52
2023-04-27T23:25:23.991Z,12.30
2023-04-27T23:27:52.516Z,8.73
2023-04-27T23:30:21.848Z,8.57
2023-04-27T23:32:48.996Z,9.32
2023-04-27T23:35:16.388Z,10.13
2023-04-27T23:37:44.305Z,10.27
2023-04-27T23:40:12.319Z,8.18
2023-04-27T23:42:39.461Z,10.57
2023-04-27T23:45:07.365Z,9.55
2023-04-27T23:47:34.557Z,8.20
2023-04-27T23:50:02.334Z,6.45
2023-04-27T23:52:29.544Z,11.50
2023-04-27T23:54:57.941Z,8.75
2023-04-27T23:57:24.982Z,9.02
2023-04-27T23:59:52.401Z,7.15
